Latitude: N 50° 09' 49" Longitude: W 05° 11' 53" Elevation: 168m ASL

There are 4 visitors online

Adverts
Latest METAR Data

Below are the latest METARs ("Meteorological Services to Airmen Reports"), for RNAS Culdrose and Newquay Airport.

EGDR - RNAS Culdrose
Distance from station: SW 6mi, 9km
Updated: Sat, 26-May-2018 5:50pm BST
Mostly Cloudy
Mostly Cloudy
 Wind from N
Wind: N 13 mph , 20 km/h
Temperature: 63°F , 17°C
Dew Point: 59°F , 15°C
Humidity: 88%
Barometer: 29.94 inHg , 1014 hPa
Clouds: Mostly Cloudy
Visibility: 5 miles , 8 km
Cloud details: Few Clouds 2500 ft
Mostly Cloudy 8000 ft
2018/05/26 16:50 EGDR 261650Z AUTO 01011KT 8000 // FEW025/// BKN080/// 17/15 Q1014
EGHQ - Newquay Airport
Distance from station: NE 21mi, 34km
Updated: Sat, 26-May-2018 6:20pm BST
Light rain, Showers, Mostly cloudy
Light rain, Showers, Mostly cloudy
 Wind from NNE
Wind: NNE 9 mph , 15 km/h
Temperature: 57°F , 14°C
Dew Point: 57°F , 14°C
Humidity: 100%
Barometer: 29.94 inHg , 1014 hPa
Summary: Light rain, Showers
Clouds: Mostly Cloudy
Visibility: 1 mile , 2 km
Cloud details: Mostly Cloudy 1800 ft
2018/05/26 17:20 EGHQ 261720Z 02008KT 1800 -SHRA BKN018 14/14 Q1014
 
EGTE - Exeter Airport
Distance from station: ENE 88mi, 141km
Updated: Thu, 01-Jan-1970 1:00am BST
NOT Current
unable to load EGTE data RC=404 Not Found
unable to load EGTE data RC=404 Not Found
 
EGHE - St Marys, IOS
Distance from station: W 51mi, 82km
Updated: Sat, 26-May-2018 6:20pm BST
Partly Cloudy
Partly Cloudy
 Wind from NNE
Wind: NNE 17 mph , 28 km/h
Temperature: 59°F , 15°C
Dew Point: 55°F , 13°C
Humidity: 88%
Barometer: 29.97 inHg , 1015 hPa
Clouds: Partly Cloudy
Visibility: 4 miles , 7 km
Cloud details: Partly Cloudy 4100 ft
2018/05/26 17:20 EGHE 261720Z 02015KT 7000 SCT041 15/13 Q1015

Metar display script from Saratoga-Weather.org

UK - WEATHER STATION TOPSITES - UK World Weather Websites

This is a private weather station, never base important decisions or events on data from this weather station. Although every effort has been made to make the data as accurate as possible it does not meet MetOffice standards. It is proved as a guide of local weather conditions. We accept no liability for any loss which may arise from use of the data.

Copyright © Carnkie Weather 2009 - 2018.